Terminal Aerodrome Forecast
Issued by NWS

Home | Current Version | Previous Version | Text Only | Print | Product List | Glossary On
Versions: 1 2 3 4 5 6 7 8 9 10 11 12 13 14 15 16 17 18 19 20 21 22 23 24 25 26 27 28 29 30 31 32 33 34 35 36 37 38 39 40 41 42
000
FTUS42 KGSP 242321
TAFHKY
TAF
KHKY 242321Z 2500/2524 18005KT P6SM FEW050 SCT250
      TEMPO 2505/2509 BKN050
     FM250900 19005KT 4SM BR OVC008
     FM251100 20007KT 2SM BR VCSH BKN003
     FM251400 22010KT P6SM VCSH BKN010
     FM251600 24011G19KT P6SM BKN080 PROB30 2516/2518 4SM -SHRA
      OVC040
     FM251800 26012G21KT P6SM SCT150=

USA.gov is the U.S. government's official web portal to all federal, state and local government web resources and services.